GLD352 SBCG-SBPO
Flight info
| Callsign | GLD352 |
|---|---|
| Flight time | 2h 1m |
| Altitude | 28000 |
| Route | MIDE1B POTLA DCT GAXUT DCT ILMIS DCT PALOX DCT |
| Aircraft | TBM8/M-SDFGIRY/S |
Departure
| Time | 2026-04-18 21:41 |
|---|---|
| Airport | Campo Grande Airport (SBCG) |
Arrival
| Time | 2026-04-18 23:42 |
|---|---|
| Airport | Juvenal Loureiro Cardoso Airport (SBPO) |
| Time | Latitude | Longitude | Altitude | Speed | Heading |
|---|---|---|---|---|---|
| 2026-04-18 21:26 | -20.45868 | -54.67167 | 1834 ft | 0 kts | 133° |
| 2026-04-18 21:36 | -20.45868 | -54.67166 | 1834 ft | 0 kts | 133° |
| 2026-04-18 21:37 | -20.45873 | -54.67161 | 1834 ft | 4 kts | 132° |
| 2026-04-18 21:37 | -20.45913 | -54.67144 | 1834 ft | 8 kts | 175° |
| 2026-04-18 21:37 | -20.45972 | -54.67138 | 1834 ft | 7 kts | 175° |
| 2026-04-18 21:37 | -20.46014 | -54.67133 | 1834 ft | 5 kts | 173° |
| 2026-04-18 21:38 | -20.46056 | -54.67127 | 1834 ft | 13 kts | 172° |
| 2026-04-18 21:38 | -20.46240 | -54.67105 | 1833 ft | 35 kts | 174° |
| 2026-04-18 21:38 | -20.46297 | -54.66981 | 1833 ft | 34 kts | 38° |
| 2026-04-18 21:38 | -20.46099 | -54.66786 | 1833 ft | 43 kts | 41° |
| 2026-04-18 21:39 | -20.46035 | -54.66647 | 1836 ft | 21 kts | 157° |
| 2026-04-18 21:39 | -20.46069 | -54.66633 | 1833 ft | 0 kts | 158° |
| 2026-04-18 21:39 | -20.46090 | -54.66623 | 1833 ft | 17 kts | 154° |
| 2026-04-18 21:40 | -20.46263 | -54.66688 | 1832 ft | 47 kts | 222° |
| 2026-04-18 21:40 | -20.46639 | -54.67049 | 1834 ft | 96 kts | 223° |
| 2026-04-18 21:40 | -20.47198 | -54.67589 | 1993 ft | 118 kts | 221° |
| 2026-04-18 21:40 | -20.47834 | -54.68239 | 2228 ft | 136 kts | 223° |
| 2026-04-18 21:41 | -20.48546 | -54.68973 | 2571 ft | 144 kts | 223° |
| 2026-04-18 21:41 | -20.49285 | -54.69707 | 2930 ft | 148 kts | 221° |
| 2026-04-18 21:41 | -20.50048 | -54.70435 | 3394 ft | 147 kts | 219° |
| 2026-04-18 21:41 | -20.50832 | -54.71138 | 3848 ft | 147 kts | 218° |
| 2026-04-18 21:42 | -20.51637 | -54.71817 | 4302 ft | 148 kts | 215° |
| 2026-04-18 21:42 | -20.52495 | -54.72421 | 4747 ft | 148 kts | 206° |
| 2026-04-18 21:42 | -20.53433 | -54.72885 | 5161 ft | 149 kts | 199° |
| 2026-04-18 21:42 | -20.54414 | -54.73259 | 5580 ft | 150 kts | 196° |
| 2026-04-18 21:43 | -20.55422 | -54.73571 | 5999 ft | 151 kts | 192° |
| 2026-04-18 21:43 | -20.56453 | -54.73820 | 6413 ft | 152 kts | 189° |
| 2026-04-18 21:43 | -20.57501 | -54.74010 | 6805 ft | 153 kts | 186° |
| 2026-04-18 21:43 | -20.58563 | -54.74156 | 7183 ft | 155 kts | 192° |
| 2026-04-18 21:44 | -20.59501 | -54.74707 | 7595 ft | 154 kts | 207° |
| 2026-04-18 21:44 | -20.60533 | -54.74756 | 8012 ft | 156 kts | 153° |
| 2026-04-18 21:44 | -20.61180 | -54.73864 | 8394 ft | 159 kts | 99° |
| 2026-04-18 21:44 | -20.61233 | -54.72675 | 8746 ft | 162 kts | 89° |
| 2026-04-18 21:45 | -20.61260 | -54.71469 | 9151 ft | 163 kts | 89° |
| 2026-04-18 21:45 | -20.61282 | -54.70252 | 9543 ft | 165 kts | 89° |
| 2026-04-18 21:45 | -20.61305 | -54.69024 | 9911 ft | 166 kts | 90° |
| 2026-04-18 21:45 | -20.61341 | -54.67786 | 10268 ft | 167 kts | 90° |
| 2026-04-18 21:46 | -20.61367 | -54.66540 | 10638 ft | 168 kts | 89° |
| 2026-04-18 21:46 | -20.61387 | -54.65291 | 11009 ft | 169 kts | 89° |
| 2026-04-18 21:46 | -20.61407 | -54.64031 | 11376 ft | 170 kts | 89° |
| 2026-04-18 21:46 | -20.61462 | -54.62767 | 11719 ft | 172 kts | 101° |
| 2026-04-18 21:47 | -20.62023 | -54.61649 | 12104 ft | 171 kts | 122° |
| 2026-04-18 21:47 | -20.62636 | -54.60559 | 12476 ft | 172 kts | 117° |
| 2026-04-18 21:47 | -20.63151 | -54.59398 | 12837 ft | 174 kts | 112° |
| 2026-04-18 21:47 | -20.63613 | -54.58202 | 13206 ft | 175 kts | 110° |
| 2026-04-18 21:48 | -20.64082 | -54.57001 | 13562 ft | 176 kts | 116° |
| 2026-04-18 21:48 | -20.64650 | -54.55862 | 13905 ft | 176 kts | 116° |
| 2026-04-18 21:48 | -20.65213 | -54.54695 | 14232 ft | 177 kts | 116° |
| 2026-04-18 21:48 | -20.65777 | -54.53523 | 14560 ft | 177 kts | 117° |
| 2026-04-18 21:49 | -20.66351 | -54.52334 | 14905 ft | 178 kts | 117° |
| 2026-04-18 21:49 | -20.66919 | -54.51161 | 15237 ft | 178 kts | 117° |
| 2026-04-18 21:49 | -20.67489 | -54.49982 | 15568 ft | 179 kts | 117° |
| 2026-04-18 21:49 | -20.68060 | -54.48800 | 15893 ft | 180 kts | 118° |
| 2026-04-18 21:50 | -20.68634 | -54.47612 | 16219 ft | 180 kts | 118° |
| 2026-04-18 21:50 | -20.69210 | -54.46421 | 16548 ft | 181 kts | 118° |
| 2026-04-18 21:50 | -20.69787 | -54.45227 | 16876 ft | 181 kts | 118° |
| 2026-04-18 21:50 | -20.70365 | -54.44032 | 17204 ft | 182 kts | 118° |
| 2026-04-18 21:51 | -20.70945 | -54.42829 | 17527 ft | 182 kts | 119° |
| 2026-04-18 21:51 | -20.71527 | -54.41624 | 17851 ft | 183 kts | 119° |
| 2026-04-18 21:51 | -20.72111 | -54.40415 | 18172 ft | 183 kts | 119° |
| 2026-04-18 21:51 | -20.72689 | -54.39217 | 18448 ft | 184 kts | 119° |
| 2026-04-18 21:52 | -20.73278 | -54.37997 | 18719 ft | 185 kts | 120° |
| 2026-04-18 21:52 | -20.73869 | -54.36772 | 18989 ft | 186 kts | 120° |
| 2026-04-18 21:52 | -20.74463 | -54.35540 | 19260 ft | 187 kts | 120° |
| 2026-04-18 21:52 | -20.75060 | -54.34302 | 19533 ft | 188 kts | 120° |
| 2026-04-18 21:53 | -20.75661 | -54.33056 | 19807 ft | 189 kts | 120° |
| 2026-04-18 21:53 | -20.76263 | -54.31805 | 20084 ft | 190 kts | 120° |
| 2026-04-18 21:53 | -20.76870 | -54.30548 | 20356 ft | 191 kts | 121° |
| 2026-04-18 21:53 | -20.77480 | -54.29281 | 20620 ft | 192 kts | 121° |
| 2026-04-18 21:54 | -20.78093 | -54.28009 | 20889 ft | 193 kts | 121° |
| 2026-04-18 21:54 | -20.78708 | -54.26729 | 21158 ft | 194 kts | 121° |
| 2026-04-18 21:54 | -20.79328 | -54.25443 | 21424 ft | 195 kts | 121° |
| 2026-04-18 21:54 | -20.79950 | -54.24150 | 21690 ft | 196 kts | 121° |
| 2026-04-18 21:55 | -20.80739 | -54.22990 | 21923 ft | 191 kts | 143° |
| 2026-04-18 21:55 | -20.81762 | -54.22101 | 22218 ft | 190 kts | 144° |
| 2026-04-18 21:55 | -20.82773 | -54.21183 | 22473 ft | 191 kts | 143° |
| 2026-04-18 21:55 | -20.83790 | -54.20266 | 22733 ft | 192 kts | 144° |
| 2026-04-18 21:56 | -20.84815 | -54.19349 | 22995 ft | 193 kts | 144° |
| 2026-04-18 21:56 | -20.85845 | -54.18427 | 23256 ft | 193 kts | 144° |
| 2026-04-18 21:56 | -20.86878 | -54.17501 | 23503 ft | 194 kts | 144° |
| 2026-04-18 21:56 | -20.87917 | -54.16570 | 23714 ft | 195 kts | 144° |
| 2026-04-18 21:57 | -20.88960 | -54.15634 | 23917 ft | 196 kts | 144° |
| 2026-04-18 21:57 | -20.90010 | -54.14692 | 24120 ft | 198 kts | 144° |
| 2026-04-18 21:57 | -20.91114 | -54.13826 | 24301 ft | 195 kts | 159° |
| 2026-04-18 21:57 | -20.92391 | -54.13435 | 24520 ft | 190 kts | 172° |
| 2026-04-18 21:58 | -20.93690 | -54.13162 | 24740 ft | 191 kts | 172° |
| 2026-04-18 21:58 | -20.94995 | -54.12874 | 24938 ft | 192 kts | 172° |
| 2026-04-18 21:58 | -20.96308 | -54.12590 | 25145 ft | 193 kts | 172° |
| 2026-04-18 21:58 | -20.97628 | -54.12306 | 25346 ft | 194 kts | 172° |
| 2026-04-18 21:59 | -20.98955 | -54.12020 | 25539 ft | 195 kts | 172° |
| 2026-04-18 21:59 | -21.00287 | -54.11731 | 25747 ft | 196 kts | 172° |
| 2026-04-18 21:59 | -21.01627 | -54.11440 | 25947 ft | 197 kts | 172° |
| 2026-04-18 21:59 | -21.02972 | -54.11150 | 26145 ft | 198 kts | 172° |
| 2026-04-18 22:00 | -21.03885 | -54.10952 | 26270 ft | 199 kts | 172° |
| 2026-04-18 22:00 | -21.05242 | -54.10658 | 26474 ft | 199 kts | 173° |
| 2026-04-18 22:00 | -21.06603 | -54.10364 | 26675 ft | 200 kts | 173° |
| 2026-04-18 22:00 | -21.07973 | -54.10067 | 26872 ft | 201 kts | 173° |
| 2026-04-18 22:01 | -21.09349 | -54.09769 | 27073 ft | 202 kts | 173° |
| 2026-04-18 22:01 | -21.10732 | -54.09469 | 27257 ft | 203 kts | 173° |
| 2026-04-18 22:01 | -21.12122 | -54.09168 | 27445 ft | 204 kts | 173° |
| 2026-04-18 22:01 | -21.13516 | -54.08866 | 27634 ft | 205 kts | 173° |
| 2026-04-18 22:02 | -21.14900 | -54.08566 | 27818 ft | 206 kts | 173° |
| 2026-04-18 22:02 | -21.16313 | -54.08258 | 27950 ft | 210 kts | 173° |
| 2026-04-18 22:02 | -21.17776 | -54.07943 | 27959 ft | 219 kts | 173° |
| 2026-04-18 22:02 | -21.19300 | -54.07610 | 27967 ft | 228 kts | 171° |
| 2026-04-18 22:03 | -21.20871 | -54.07238 | 27964 ft | 235 kts | 171° |
| 2026-04-18 22:03 | -21.22492 | -54.06890 | 27967 ft | 240 kts | 172° |
| 2026-04-18 22:03 | -21.24152 | -54.06551 | 27972 ft | 246 kts | 173° |
| 2026-04-18 22:03 | -21.25878 | -54.06192 | 27962 ft | 252 kts | 172° |
| 2026-04-18 22:04 | -21.27586 | -54.05813 | 27961 ft | 256 kts | 172° |
| 2026-04-18 22:04 | -21.29342 | -54.05422 | 27963 ft | 260 kts | 172° |
| 2026-04-18 22:04 | -21.31124 | -54.05034 | 27961 ft | 263 kts | 172° |
| 2026-04-18 22:04 | -21.32923 | -54.04645 | 27962 ft | 265 kts | 172° |
| 2026-04-18 22:05 | -21.34738 | -54.04250 | 27962 ft | 267 kts | 172° |
| 2026-04-18 22:05 | -21.36565 | -54.03851 | 27962 ft | 269 kts | 172° |
| 2026-04-18 22:05 | -21.38401 | -54.03452 | 27962 ft | 270 kts | 172° |
| 2026-04-18 22:05 | -21.40249 | -54.03051 | 27961 ft | 271 kts | 172° |
| 2026-04-18 22:06 | -21.42103 | -54.02647 | 27959 ft | 272 kts | 172° |
| 2026-04-18 22:06 | -21.43964 | -54.02240 | 27957 ft | 273 kts | 172° |
| 2026-04-18 22:06 | -21.45830 | -54.01834 | 27951 ft | 274 kts | 172° |
| 2026-04-18 22:06 | -21.47700 | -54.01427 | 27949 ft | 275 kts | 172° |
| 2026-04-18 22:07 | -21.49575 | -54.01020 | 27953 ft | 275 kts | 172° |
| 2026-04-18 22:07 | -21.51454 | -54.00610 | 27951 ft | 276 kts | 172° |
| 2026-04-18 22:07 | -21.53332 | -54.00199 | 27947 ft | 275 kts | 172° |
| 2026-04-18 22:07 | -21.55211 | -53.99789 | 27944 ft | 275 kts | 172° |
| 2026-04-18 22:08 | -21.57089 | -53.99380 | 27944 ft | 276 kts | 172° |
| 2026-04-18 22:08 | -21.58969 | -53.98969 | 27941 ft | 275 kts | 172° |
| 2026-04-18 22:08 | -21.60844 | -53.98560 | 27942 ft | 275 kts | 172° |
| 2026-04-18 22:08 | -21.62719 | -53.98151 | 27940 ft | 275 kts | 172° |
| 2026-04-18 22:09 | -21.64592 | -53.97742 | 27943 ft | 275 kts | 172° |
| 2026-04-18 22:09 | -21.66464 | -53.97334 | 27941 ft | 274 kts | 172° |
| 2026-04-18 22:09 | -21.68334 | -53.96924 | 27940 ft | 275 kts | 172° |
| 2026-04-18 22:09 | -21.70204 | -53.96514 | 27941 ft | 274 kts | 172° |
| 2026-04-18 22:10 | -21.72073 | -53.96105 | 27940 ft | 274 kts | 172° |
| 2026-04-18 22:10 | -21.73943 | -53.95698 | 27942 ft | 274 kts | 172° |
| 2026-04-18 22:10 | -21.75809 | -53.95290 | 27943 ft | 274 kts | 172° |
| 2026-04-18 22:10 | -21.77674 | -53.94882 | 27939 ft | 273 kts | 172° |
| 2026-04-18 22:11 | -21.79539 | -53.94474 | 27938 ft | 273 kts | 172° |
| 2026-04-18 22:11 | -21.81402 | -53.94068 | 27940 ft | 273 kts | 172° |
| 2026-04-18 22:11 | -21.83265 | -53.93660 | 27938 ft | 273 kts | 172° |
| 2026-04-18 22:11 | -21.85129 | -53.93252 | 27938 ft | 273 kts | 172° |
| 2026-04-18 22:12 | -21.88851 | -53.92435 | 27940 ft | 273 kts | 172° |
| 2026-04-18 22:12 | -21.90163 | -53.92147 | 27940 ft | 273 kts | 173° |
| 2026-04-18 22:12 | -21.91995 | -53.91761 | 27938 ft | 273 kts | 173° |
| 2026-04-18 22:13 | -21.93862 | -53.91363 | 27940 ft | 274 kts | 173° |
| 2026-04-18 22:13 | -21.95727 | -53.90943 | 27939 ft | 274 kts | 171° |
| 2026-04-18 22:13 | -21.97585 | -53.90484 | 27937 ft | 274 kts | 171° |
| 2026-04-18 22:13 | -21.99420 | -53.90076 | 27936 ft | 272 kts | 172° |
| 2026-04-18 22:14 | -22.01276 | -53.89696 | 27946 ft | 272 kts | 173° |
| 2026-04-18 22:14 | -22.03136 | -53.89317 | 27943 ft | 272 kts | 173° |
| 2026-04-18 22:14 | -22.04993 | -53.88916 | 27943 ft | 273 kts | 172° |
| 2026-04-18 22:14 | -22.06879 | -53.88474 | 27943 ft | 275 kts | 171° |
| 2026-04-18 22:15 | -22.08747 | -53.88044 | 27943 ft | 275 kts | 172° |
| 2026-04-18 22:15 | -22.10628 | -53.87649 | 27942 ft | 275 kts | 173° |
| 2026-04-18 22:15 | -22.12513 | -53.87251 | 27942 ft | 276 kts | 172° |
| 2026-04-18 22:15 | -22.14399 | -53.86835 | 27943 ft | 277 kts | 172° |
| 2026-04-18 22:16 | -22.16265 | -53.86420 | 27941 ft | 278 kts | 172° |
| 2026-04-18 22:16 | -22.18159 | -53.86004 | 27940 ft | 278 kts | 172° |
| 2026-04-18 22:16 | -22.20056 | -53.85574 | 27939 ft | 278 kts | 171° |
| 2026-04-18 22:16 | -22.21948 | -53.85148 | 27938 ft | 276 kts | 172° |
| 2026-04-18 22:17 | -22.23818 | -53.84699 | 27949 ft | 276 kts | 168° |
| 2026-04-18 22:17 | -22.25655 | -53.84086 | 27948 ft | 277 kts | 167° |
| 2026-04-18 22:17 | -22.27500 | -53.83514 | 27938 ft | 276 kts | 169° |
| 2026-04-18 22:17 | -22.29355 | -53.82957 | 27940 ft | 277 kts | 168° |
| 2026-04-18 22:18 | -22.31201 | -53.82367 | 27939 ft | 277 kts | 167° |
| 2026-04-18 22:18 | -22.33046 | -53.81766 | 27938 ft | 277 kts | 167° |
| 2026-04-18 22:18 | -22.34896 | -53.81179 | 27938 ft | 277 kts | 168° |
| 2026-04-18 22:18 | -22.36748 | -53.80595 | 27940 ft | 277 kts | 168° |
| 2026-04-18 22:19 | -22.38600 | -53.80006 | 27940 ft | 278 kts | 168° |
| 2026-04-18 22:19 | -22.40455 | -53.79416 | 27938 ft | 278 kts | 168° |
| 2026-04-18 22:19 | -22.42311 | -53.78825 | 27940 ft | 278 kts | 168° |
| 2026-04-18 22:19 | -22.44168 | -53.78233 | 27940 ft | 278 kts | 168° |
| 2026-04-18 22:20 | -22.46027 | -53.77640 | 27940 ft | 279 kts | 168° |
| 2026-04-18 22:20 | -22.47888 | -53.77048 | 27939 ft | 279 kts | 168° |
| 2026-04-18 22:20 | -22.49750 | -53.76456 | 27945 ft | 279 kts | 168° |
| 2026-04-18 22:20 | -22.51611 | -53.75863 | 27942 ft | 279 kts | 168° |
| 2026-04-18 22:21 | -22.53472 | -53.75269 | 27940 ft | 279 kts | 168° |
| 2026-04-18 22:21 | -22.55330 | -53.74676 | 27942 ft | 279 kts | 168° |
| 2026-04-18 22:21 | -22.57190 | -53.74084 | 27946 ft | 278 kts | 168° |
| 2026-04-18 22:21 | -22.59047 | -53.73492 | 27942 ft | 278 kts | 168° |
| 2026-04-18 22:22 | -22.60902 | -53.72900 | 27941 ft | 278 kts | 168° |
| 2026-04-18 22:22 | -22.62756 | -53.72308 | 27940 ft | 278 kts | 168° |
| 2026-04-18 22:22 | -22.64608 | -53.71717 | 27943 ft | 277 kts | 168° |
| 2026-04-18 22:22 | -22.66458 | -53.71127 | 27942 ft | 277 kts | 168° |
| 2026-04-18 22:23 | -22.68306 | -53.70537 | 27942 ft | 277 kts | 168° |
| 2026-04-18 22:23 | -22.70156 | -53.69946 | 27941 ft | 277 kts | 168° |
| 2026-04-18 22:23 | -22.72005 | -53.69355 | 27940 ft | 277 kts | 168° |
| 2026-04-18 22:23 | -22.73852 | -53.68764 | 27947 ft | 277 kts | 168° |
| 2026-04-18 22:24 | -22.75701 | -53.68173 | 27943 ft | 277 kts | 168° |
| 2026-04-18 22:24 | -22.77548 | -53.67582 | 27943 ft | 277 kts | 168° |
| 2026-04-18 22:24 | -22.79398 | -53.66989 | 27942 ft | 277 kts | 168° |
| 2026-04-18 22:24 | -22.81215 | -53.66408 | 27941 ft | 277 kts | 168° |
| 2026-04-18 22:25 | -22.83093 | -53.65806 | 27938 ft | 277 kts | 168° |
| 2026-04-18 22:25 | -22.84915 | -53.65223 | 27940 ft | 277 kts | 168° |
| 2026-04-18 22:25 | -22.86761 | -53.64632 | 27940 ft | 277 kts | 168° |
| 2026-04-18 22:25 | -22.88605 | -53.64040 | 27937 ft | 277 kts | 168° |
| 2026-04-18 22:26 | -22.90451 | -53.63449 | 27938 ft | 277 kts | 168° |
| 2026-04-18 22:26 | -22.92295 | -53.62857 | 27938 ft | 276 kts | 168° |
| 2026-04-18 22:26 | -22.94141 | -53.62266 | 27941 ft | 276 kts | 168° |
| 2026-04-18 22:26 | -22.95987 | -53.61675 | 27940 ft | 276 kts | 168° |
| 2026-04-18 22:27 | -22.97830 | -53.61084 | 27946 ft | 276 kts | 168° |
| 2026-04-18 22:27 | -22.99675 | -53.60492 | 27944 ft | 276 kts | 168° |
| 2026-04-18 22:27 | -23.01519 | -53.59899 | 27940 ft | 277 kts | 168° |
| 2026-04-18 22:27 | -23.03365 | -53.59306 | 27943 ft | 277 kts | 168° |
| 2026-04-18 22:28 | -23.05210 | -53.58714 | 27944 ft | 276 kts | 168° |
| 2026-04-18 22:28 | -23.07053 | -53.58122 | 27945 ft | 276 kts | 168° |
| 2026-04-18 22:28 | -23.08894 | -53.57529 | 27945 ft | 276 kts | 168° |
| 2026-04-18 22:28 | -23.10764 | -53.56928 | 27944 ft | 276 kts | 168° |
| 2026-04-18 22:29 | -23.12605 | -53.56336 | 27940 ft | 276 kts | 168° |
| 2026-04-18 22:29 | -23.14423 | -53.55752 | 27941 ft | 276 kts | 168° |
| 2026-04-18 22:29 | -23.16267 | -53.55160 | 27942 ft | 276 kts | 168° |
| 2026-04-18 22:29 | -23.18110 | -53.54566 | 27945 ft | 276 kts | 168° |
| 2026-04-18 22:30 | -23.19952 | -53.53971 | 27945 ft | 276 kts | 168° |
| 2026-04-18 22:30 | -23.21795 | -53.53378 | 27954 ft | 276 kts | 168° |
| 2026-04-18 22:30 | -23.23636 | -53.52786 | 27955 ft | 276 kts | 168° |
| 2026-04-18 22:30 | -23.25478 | -53.52191 | 27952 ft | 276 kts | 168° |
| 2026-04-18 22:31 | -23.27322 | -53.51597 | 27953 ft | 277 kts | 168° |
| 2026-04-18 22:31 | -23.29169 | -53.51002 | 27950 ft | 277 kts | 168° |
| 2026-04-18 22:31 | -23.31014 | -53.50407 | 27946 ft | 277 kts | 168° |
| 2026-04-18 22:31 | -23.32858 | -53.49811 | 27945 ft | 276 kts | 168° |
| 2026-04-18 22:32 | -23.34703 | -53.49217 | 27944 ft | 276 kts | 168° |
| 2026-04-18 22:32 | -23.36543 | -53.48623 | 27943 ft | 276 kts | 168° |
| 2026-04-18 22:32 | -23.38386 | -53.48027 | 27944 ft | 276 kts | 168° |
| 2026-04-18 22:32 | -23.40223 | -53.47431 | 27946 ft | 276 kts | 168° |
| 2026-04-18 22:33 | -23.42061 | -53.46836 | 27951 ft | 275 kts | 168° |
| 2026-04-18 22:33 | -23.43899 | -53.46243 | 27950 ft | 275 kts | 168° |
| 2026-04-18 22:33 | -23.45735 | -53.45650 | 27949 ft | 275 kts | 168° |
| 2026-04-18 22:33 | -23.47570 | -53.45056 | 27949 ft | 275 kts | 168° |
| 2026-04-18 22:34 | -23.49407 | -53.44460 | 27950 ft | 275 kts | 168° |
| 2026-04-18 22:34 | -23.51243 | -53.43862 | 27955 ft | 276 kts | 168° |
| 2026-04-18 22:34 | -23.53077 | -53.43260 | 27954 ft | 275 kts | 168° |
| 2026-04-18 22:34 | -23.54912 | -53.42672 | 27957 ft | 275 kts | 168° |
| 2026-04-18 22:35 | -23.56745 | -53.42083 | 27957 ft | 275 kts | 168° |
| 2026-04-18 22:35 | -23.58572 | -53.41470 | 27953 ft | 275 kts | 167° |
| 2026-04-18 22:35 | -23.60394 | -53.40868 | 27953 ft | 274 kts | 168° |
| 2026-04-18 22:35 | -23.62221 | -53.40293 | 27954 ft | 273 kts | 168° |
| 2026-04-18 22:36 | -23.64043 | -53.39710 | 27957 ft | 273 kts | 168° |
| 2026-04-18 22:36 | -23.65871 | -53.39136 | 27955 ft | 273 kts | 168° |
| 2026-04-18 22:36 | -23.67696 | -53.38543 | 27955 ft | 274 kts | 168° |
| 2026-04-18 22:36 | -23.69520 | -53.37940 | 27957 ft | 274 kts | 168° |
| 2026-04-18 22:37 | -23.71345 | -53.37346 | 27957 ft | 274 kts | 168° |
| 2026-04-18 22:37 | -23.73174 | -53.36758 | 27960 ft | 274 kts | 169° |
| 2026-04-18 22:37 | -23.74998 | -53.36169 | 27959 ft | 274 kts | 168° |
| 2026-04-18 22:37 | -23.76832 | -53.35570 | 27958 ft | 274 kts | 168° |
| 2026-04-18 22:38 | -23.78660 | -53.34975 | 27962 ft | 274 kts | 168° |
| 2026-04-18 22:38 | -23.80489 | -53.34374 | 27961 ft | 275 kts | 168° |
| 2026-04-18 22:38 | -23.82321 | -53.33779 | 27961 ft | 275 kts | 169° |
| 2026-04-18 22:38 | -23.84155 | -53.33190 | 27962 ft | 275 kts | 168° |
| 2026-04-18 22:39 | -23.85988 | -53.32592 | 27961 ft | 275 kts | 168° |
| 2026-04-18 22:39 | -23.87822 | -53.31993 | 27960 ft | 275 kts | 168° |
| 2026-04-18 22:39 | -23.89655 | -53.31397 | 27960 ft | 275 kts | 168° |
| 2026-04-18 22:39 | -23.91488 | -53.30801 | 27960 ft | 275 kts | 168° |
| 2026-04-18 22:40 | -23.93324 | -53.30205 | 27974 ft | 275 kts | 169° |
| 2026-04-18 22:40 | -23.95158 | -53.29607 | 27972 ft | 275 kts | 168° |
| 2026-04-18 22:40 | -23.96992 | -53.29011 | 27967 ft | 275 kts | 169° |
| 2026-04-18 22:40 | -23.98821 | -53.28398 | 27960 ft | 275 kts | 167° |
| 2026-04-18 22:41 | -24.00640 | -53.27771 | 27959 ft | 273 kts | 167° |
| 2026-04-18 22:41 | -24.02456 | -53.27184 | 27961 ft | 272 kts | 169° |
| 2026-04-18 22:41 | -24.04280 | -53.26632 | 27963 ft | 272 kts | 169° |
| 2026-04-18 22:41 | -24.06093 | -53.26046 | 27962 ft | 272 kts | 168° |
| 2026-04-18 22:42 | -24.07905 | -53.25435 | 27962 ft | 272 kts | 168° |
| 2026-04-18 22:42 | -24.09719 | -53.24848 | 27969 ft | 272 kts | 169° |
| 2026-04-18 22:42 | -24.11541 | -53.24286 | 27968 ft | 273 kts | 169° |
| 2026-04-18 22:42 | -24.13363 | -53.23694 | 27971 ft | 273 kts | 169° |
| 2026-04-18 22:43 | -24.14568 | -53.23289 | 27970 ft | 274 kts | 168° |
| 2026-04-18 22:43 | -24.17009 | -53.22481 | 27978 ft | 274 kts | 169° |
| 2026-04-18 22:43 | -24.18220 | -53.22087 | 27981 ft | 274 kts | 169° |
| 2026-04-18 22:43 | -24.20052 | -53.21491 | 27984 ft | 275 kts | 169° |
| 2026-04-18 22:44 | -24.21885 | -53.20891 | 27979 ft | 275 kts | 169° |
| 2026-04-18 22:44 | -24.23719 | -53.20290 | 27980 ft | 275 kts | 169° |
| 2026-04-18 22:44 | -24.25555 | -53.19687 | 27980 ft | 275 kts | 169° |
| 2026-04-18 22:44 | -24.27390 | -53.19082 | 27976 ft | 276 kts | 169° |
| 2026-04-18 22:45 | -24.29223 | -53.18473 | 27975 ft | 275 kts | 169° |
| 2026-04-18 22:45 | -24.31059 | -53.17874 | 27972 ft | 275 kts | 169° |
| 2026-04-18 22:45 | -24.32898 | -53.17278 | 27969 ft | 275 kts | 169° |
| 2026-04-18 22:45 | -24.34735 | -53.16677 | 27971 ft | 275 kts | 169° |
| 2026-04-18 22:46 | -24.36570 | -53.16079 | 27970 ft | 275 kts | 169° |
| 2026-04-18 22:46 | -24.38403 | -53.15463 | 27969 ft | 275 kts | 168° |
| 2026-04-18 22:46 | -24.40234 | -53.14852 | 27978 ft | 275 kts | 169° |
| 2026-04-18 22:46 | -24.42066 | -53.14258 | 27969 ft | 274 kts | 169° |
| 2026-04-18 22:47 | -24.43894 | -53.13663 | 27975 ft | 274 kts | 169° |
| 2026-04-18 22:47 | -24.45718 | -53.13061 | 27973 ft | 274 kts | 169° |
| 2026-04-18 22:47 | -24.47541 | -53.12461 | 27972 ft | 273 kts | 169° |
| 2026-04-18 22:47 | -24.49360 | -53.11864 | 27968 ft | 273 kts | 169° |
| 2026-04-18 22:48 | -24.51177 | -53.11265 | 27972 ft | 272 kts | 169° |
| 2026-04-18 22:48 | -24.52991 | -53.10668 | 27974 ft | 272 kts | 169° |
| 2026-04-18 22:48 | -24.54806 | -53.10072 | 27975 ft | 272 kts | 169° |
| 2026-04-18 22:48 | -24.56618 | -53.09475 | 27978 ft | 272 kts | 169° |
| 2026-04-18 22:49 | -24.58432 | -53.08876 | 27977 ft | 272 kts | 169° |
| 2026-04-18 22:49 | -24.60221 | -53.08288 | 27978 ft | 272 kts | 169° |
| 2026-04-18 22:49 | -24.62034 | -53.07693 | 27979 ft | 272 kts | 169° |
| 2026-04-18 22:49 | -24.63847 | -53.07089 | 27993 ft | 272 kts | 169° |
| 2026-04-18 22:50 | -24.65711 | -53.06472 | 27660 ft | 278 kts | 170° |
| 2026-04-18 22:50 | -24.67568 | -53.05883 | 27287 ft | 278 kts | 169° |
| 2026-04-18 22:50 | -24.69381 | -53.05219 | 26925 ft | 278 kts | 167° |
| 2026-04-18 22:50 | -24.71212 | -53.04551 | 26556 ft | 276 kts | 168° |
| 2026-04-18 22:51 | -24.73040 | -53.03912 | 26202 ft | 275 kts | 168° |
| 2026-04-18 22:51 | -24.74850 | -53.03263 | 25844 ft | 273 kts | 167° |
| 2026-04-18 22:51 | -24.76651 | -53.02606 | 25489 ft | 272 kts | 167° |
| 2026-04-18 22:51 | -24.78442 | -53.01958 | 25140 ft | 270 kts | 167° |
| 2026-04-18 22:52 | -24.80225 | -53.01316 | 24793 ft | 269 kts | 167° |
| 2026-04-18 22:52 | -24.81993 | -53.00677 | 24466 ft | 267 kts | 167° |
| 2026-04-18 22:52 | -24.83758 | -53.00039 | 24127 ft | 266 kts | 167° |
| 2026-04-18 22:52 | -24.85512 | -52.99404 | 23802 ft | 265 kts | 167° |
| 2026-04-18 22:53 | -24.87255 | -52.98772 | 23469 ft | 263 kts | 167° |
| 2026-04-18 22:53 | -24.88991 | -52.98146 | 23075 ft | 262 kts | 167° |
| 2026-04-18 22:53 | -24.90716 | -52.97523 | 22689 ft | 261 kts | 167° |
| 2026-04-18 22:53 | -24.92433 | -52.96900 | 22298 ft | 258 kts | 167° |
| 2026-04-18 22:54 | -24.94165 | -52.96525 | 21882 ft | 251 kts | 182° |
| 2026-04-18 22:54 | -24.95880 | -52.96714 | 21485 ft | 246 kts | 196° |
| 2026-04-18 22:54 | -24.97451 | -52.97403 | 21087 ft | 242 kts | 210° |
| 2026-04-18 22:54 | -24.98779 | -52.98526 | 20705 ft | 241 kts | 223° |
| 2026-04-18 22:55 | -24.99780 | -53.00004 | 20322 ft | 242 kts | 237° |
| 2026-04-18 22:55 | -25.00383 | -53.01745 | 19941 ft | 245 kts | 252° |
| 2026-04-18 22:55 | -25.00529 | -53.03629 | 19568 ft | 250 kts | 266° |
| 2026-04-18 22:55 | -25.00182 | -53.05526 | 19196 ft | 257 kts | 282° |
| 2026-04-18 22:56 | -24.99331 | -53.07281 | 18832 ft | 264 kts | 299° |
| 2026-04-18 22:56 | -24.98024 | -53.08739 | 18475 ft | 270 kts | 312° |
| 2026-04-18 22:56 | -24.96587 | -53.10065 | 18135 ft | 268 kts | 312° |
| 2026-04-18 22:56 | -24.95181 | -53.11396 | 17749 ft | 265 kts | 311° |
| 2026-04-18 22:57 | -24.93794 | -53.12722 | 17369 ft | 263 kts | 311° |
| 2026-04-18 22:57 | -24.92413 | -53.14032 | 16985 ft | 261 kts | 312° |
| 2026-04-18 22:57 | -24.91046 | -53.15325 | 16612 ft | 258 kts | 312° |
| 2026-04-18 22:57 | -24.89689 | -53.16612 | 16235 ft | 256 kts | 312° |
| 2026-04-18 22:58 | -24.88349 | -53.17884 | 15869 ft | 253 kts | 312° |
| 2026-04-18 22:58 | -24.87021 | -53.19144 | 15507 ft | 251 kts | 312° |
| 2026-04-18 22:58 | -24.85706 | -53.20389 | 15145 ft | 248 kts | 312° |
| 2026-04-18 22:58 | -24.84516 | -53.21716 | 14814 ft | 238 kts | 296° |
| 2026-04-18 22:59 | -24.84095 | -53.23394 | 14494 ft | 225 kts | 264° |
| 2026-04-18 22:59 | -24.84615 | -53.24956 | 14187 ft | 220 kts | 232° |
| 2026-04-18 22:59 | -24.85767 | -53.26057 | 13866 ft | 220 kts | 217° |
| 2026-04-18 22:59 | -24.87032 | -53.27008 | 13507 ft | 221 kts | 216° |
| 2026-04-18 23:00 | -24.88323 | -53.27929 | 13130 ft | 221 kts | 211° |
| 2026-04-18 23:00 | -24.89811 | -53.28394 | 12786 ft | 225 kts | 191° |
| 2026-04-18 23:00 | -24.91373 | -53.28588 | 12413 ft | 226 kts | 189° |
| 2026-04-18 23:00 | -24.92934 | -53.28760 | 12044 ft | 226 kts | 189° |
| 2026-04-18 23:01 | -24.94495 | -53.28936 | 11681 ft | 225 kts | 189° |
| 2026-04-18 23:01 | -24.96055 | -53.29119 | 11315 ft | 225 kts | 189° |
| 2026-04-18 23:01 | -24.97609 | -53.29308 | 10958 ft | 224 kts | 189° |
| 2026-04-18 23:01 | -24.99154 | -53.29501 | 10602 ft | 223 kts | 189° |
| 2026-04-18 23:02 | -25.00640 | -53.29898 | 10229 ft | 219 kts | 210° |
| 2026-04-18 23:02 | -25.01718 | -53.31024 | 9850 ft | 215 kts | 240° |
| 2026-04-18 23:02 | -25.02083 | -53.32595 | 9445 ft | 214 kts | 267° |
| 2026-04-18 23:02 | -25.02456 | -53.34150 | 9099 ft | 212 kts | 237° |
| 2026-04-18 23:03 | -25.03607 | -53.35136 | 8761 ft | 216 kts | 201° |
| 2026-04-18 23:03 | -25.05101 | -53.35162 | 8424 ft | 222 kts | 165° |
| 2026-04-18 23:03 | -25.06437 | -53.34301 | 8080 ft | 224 kts | 144° |
| 2026-04-18 23:03 | -25.07649 | -53.33224 | 7725 ft | 223 kts | 142° |
| 2026-04-18 23:04 | -25.08863 | -53.32164 | 7355 ft | 221 kts | 148° |
| 2026-04-18 23:04 | -25.10085 | -53.31150 | 7020 ft | 221 kts | 135° |
| 2026-04-18 23:04 | -25.11040 | -53.29857 | 6906 ft | 211 kts | 128° |
| 2026-04-18 23:04 | -25.11899 | -53.28589 | 6892 ft | 202 kts | 128° |
| 2026-04-18 23:05 | -25.12727 | -53.27364 | 6890 ft | 197 kts | 128° |
| 2026-04-18 23:05 | -25.13535 | -53.26164 | 6887 ft | 193 kts | 128° |
| 2026-04-18 23:05 | -25.14356 | -53.24943 | 6625 ft | 204 kts | 128° |
| 2026-04-18 23:05 | -25.15197 | -53.23713 | 6325 ft | 193 kts | 129° |
| 2026-04-18 23:06 | -25.15981 | -53.22575 | 6000 ft | 181 kts | 129° |
| 2026-04-18 23:06 | -25.16727 | -53.21486 | 5667 ft | 176 kts | 128° |
| 2026-04-18 23:06 | -25.17458 | -53.20423 | 5340 ft | 173 kts | 128° |
| 2026-04-18 23:06 | -25.18183 | -53.19393 | 5014 ft | 166 kts | 129° |
| 2026-04-18 23:07 | -25.18937 | -53.18474 | 4677 ft | 159 kts | 140° |
| 2026-04-18 23:07 | -25.19804 | -53.17735 | 4342 ft | 156 kts | 143° |
| 2026-04-18 23:07 | -25.20661 | -53.17018 | 4014 ft | 154 kts | 142° |
| 2026-04-18 23:07 | -25.21461 | -53.16348 | 3708 ft | 152 kts | 142° |
| 2026-04-18 23:08 | -25.22296 | -53.15655 | 3361 ft | 150 kts | 143° |
| 2026-04-18 23:08 | -25.23124 | -53.14950 | 3048 ft | 151 kts | 142° |
| 2026-04-18 23:08 | -25.23748 | -53.14077 | 2883 ft | 142 kts | 101° |
| 2026-04-18 23:08 | -25.23494 | -53.13110 | 2881 ft | 134 kts | 43° |
| 2026-04-18 23:09 | -25.22777 | -53.12478 | 2866 ft | 131 kts | 26° |
| 2026-04-18 23:09 | -25.21934 | -53.12494 | 2884 ft | 125 kts | 321° |
| 2026-04-18 23:09 | -25.21295 | -53.13153 | 2873 ft | 127 kts | 313° |
| 2026-04-18 23:09 | -25.20643 | -53.13811 | 2873 ft | 127 kts | 312° |
| 2026-04-18 23:10 | -25.20011 | -53.14465 | 2862 ft | 122 kts | 313° |
| 2026-04-18 23:10 | -25.19396 | -53.15096 | 2866 ft | 120 kts | 313° |
| 2026-04-18 23:10 | -25.18793 | -53.15731 | 2858 ft | 120 kts | 313° |
| 2026-04-18 23:10 | -25.18192 | -53.16358 | 2860 ft | 119 kts | 313° |
| 2026-04-18 23:11 | -25.17590 | -53.16995 | 2866 ft | 122 kts | 313° |
| 2026-04-18 23:11 | -25.17036 | -53.17703 | 2878 ft | 121 kts | 288° |
| 2026-04-18 23:11 | -25.16893 | -53.18603 | 2884 ft | 119 kts | 276° |
| 2026-04-18 23:11 | -25.16754 | -53.19506 | 3029 ft | 122 kts | 274° |
| 2026-04-18 23:12 | -25.16515 | -53.20465 | 3296 ft | 140 kts | 299° |
| 2026-04-18 23:12 | -25.15860 | -53.21323 | 3592 ft | 152 kts | 308° |
| 2026-04-18 23:12 | -25.15157 | -53.22231 | 3890 ft | 159 kts | 307° |
| 2026-04-18 23:12 | -25.14420 | -53.23166 | 4190 ft | 165 kts | 307° |
| 2026-04-18 23:13 | -25.13655 | -53.24131 | 4473 ft | 169 kts | 307° |
| 2026-04-18 23:13 | -25.12864 | -53.25120 | 4753 ft | 176 kts | 307° |
| 2026-04-18 23:13 | -25.12027 | -53.26197 | 4781 ft | 192 kts | 307° |
| 2026-04-18 23:13 | -25.11103 | -53.27317 | 4786 ft | 202 kts | 314° |
| 2026-04-18 23:14 | -25.10039 | -53.28360 | 4784 ft | 211 kts | 316° |
| 2026-04-18 23:14 | -25.08928 | -53.29422 | 4778 ft | 211 kts | 316° |
| 2026-04-18 23:14 | -25.07813 | -53.30475 | 4779 ft | 211 kts | 316° |
| 2026-04-18 23:14 | -25.06699 | -53.31526 | 4779 ft | 211 kts | 316° |
| 2026-04-18 23:15 | -25.05582 | -53.32573 | 4778 ft | 211 kts | 316° |
| 2026-04-18 23:15 | -25.04469 | -53.33638 | 4778 ft | 213 kts | 315° |
| 2026-04-18 23:15 | -25.03569 | -53.34902 | 4781 ft | 210 kts | 288° |
| 2026-04-18 23:15 | -25.03514 | -53.36475 | 4781 ft | 209 kts | 252° |
| 2026-04-18 23:16 | -25.04341 | -53.37754 | 4787 ft | 210 kts | 215° |
| 2026-04-18 23:16 | -25.05725 | -53.38192 | 4784 ft | 212 kts | 178° |
| 2026-04-18 23:16 | -25.07094 | -53.37608 | 4779 ft | 215 kts | 146° |
| 2026-04-18 23:16 | -25.08287 | -53.36634 | 4778 ft | 213 kts | 143° |
| 2026-04-18 23:17 | -25.09464 | -53.35651 | 4780 ft | 212 kts | 143° |
| 2026-04-18 23:17 | -25.10644 | -53.34673 | 4776 ft | 213 kts | 143° |
| 2026-04-18 23:17 | -25.11816 | -53.33682 | 4775 ft | 214 kts | 141° |
| 2026-04-18 23:17 | -25.12978 | -53.32655 | 4765 ft | 214 kts | 140° |
| 2026-04-18 23:18 | -25.14136 | -53.31618 | 4766 ft | 214 kts | 140° |
| 2026-04-18 23:18 | -25.15292 | -53.30584 | 4759 ft | 214 kts | 139° |
| 2026-04-18 23:18 | -25.16431 | -53.29528 | 4759 ft | 214 kts | 145° |
| 2026-04-18 23:18 | -25.17759 | -53.28775 | 4764 ft | 216 kts | 158° |
| 2026-04-18 23:19 | -25.19136 | -53.28105 | 4775 ft | 217 kts | 155° |
| 2026-04-18 23:19 | -25.20483 | -53.27337 | 4783 ft | 216 kts | 152° |
| 2026-04-18 23:19 | -25.21805 | -53.26559 | 4780 ft | 215 kts | 152° |
| 2026-04-18 23:19 | -25.23137 | -53.25805 | 4777 ft | 215 kts | 153° |
| 2026-04-18 23:20 | -25.24464 | -53.25060 | 4774 ft | 214 kts | 153° |
| 2026-04-18 23:20 | -25.25785 | -53.24302 | 4778 ft | 213 kts | 152° |
| 2026-04-18 23:20 | -25.27103 | -53.23551 | 4785 ft | 213 kts | 152° |
| 2026-04-18 23:20 | -25.28418 | -53.22808 | 4826 ft | 211 kts | 153° |
| 2026-04-18 23:21 | -25.29724 | -53.22072 | 4869 ft | 210 kts | 153° |
| 2026-04-18 23:21 | -25.31030 | -53.21337 | 4876 ft | 212 kts | 153° |
| 2026-04-18 23:21 | -25.32344 | -53.20597 | 4878 ft | 213 kts | 153° |
| 2026-04-18 23:21 | -25.33662 | -53.19850 | 4877 ft | 214 kts | 153° |
| 2026-04-18 23:22 | -25.34985 | -53.19098 | 4879 ft | 214 kts | 153° |
| 2026-04-18 23:22 | -25.36311 | -53.18340 | 4875 ft | 214 kts | 153° |
| 2026-04-18 23:22 | -25.37636 | -53.17587 | 4874 ft | 214 kts | 153° |
| 2026-04-18 23:23 | -25.40270 | -53.16090 | 4879 ft | 212 kts | 153° |
| 2026-04-18 23:23 | -25.41583 | -53.15343 | 4876 ft | 212 kts | 152° |
| 2026-04-18 23:23 | -25.42892 | -53.14598 | 4878 ft | 212 kts | 152° |
| 2026-04-18 23:23 | -25.44205 | -53.13849 | 4876 ft | 213 kts | 152° |
| 2026-04-18 23:24 | -25.45519 | -53.13099 | 4877 ft | 213 kts | 152° |
| 2026-04-18 23:24 | -25.46832 | -53.12349 | 4878 ft | 212 kts | 152° |
| 2026-04-18 23:24 | -25.48147 | -53.11598 | 4877 ft | 212 kts | 152° |
| 2026-04-18 23:24 | -25.49461 | -53.10852 | 4876 ft | 212 kts | 152° |
| 2026-04-18 23:25 | -25.50760 | -53.10090 | 4881 ft | 212 kts | 150° |
| 2026-04-18 23:25 | -25.52028 | -53.09260 | 4882 ft | 212 kts | 146° |
| 2026-04-18 23:25 | -25.53218 | -53.08309 | 4884 ft | 211 kts | 141° |
| 2026-04-18 23:25 | -25.54346 | -53.07263 | 4882 ft | 212 kts | 138° |
| 2026-04-18 23:26 | -25.55426 | -53.06155 | 4878 ft | 212 kts | 135° |
| 2026-04-18 23:26 | -25.56454 | -53.04992 | 4881 ft | 211 kts | 132° |
| 2026-04-18 23:26 | -25.57101 | -53.04190 | 4881 ft | 212 kts | 130° |
| 2026-04-18 23:26 | -25.58009 | -53.02901 | 4883 ft | 212 kts | 124° |
| 2026-04-18 23:27 | -25.58822 | -53.01539 | 4884 ft | 212 kts | 121° |
| 2026-04-18 23:27 | -25.59604 | -53.00154 | 4871 ft | 212 kts | 128° |
| 2026-04-18 23:27 | -25.60787 | -52.99228 | 4876 ft | 211 kts | 161° |
| 2026-04-18 23:27 | -25.62234 | -52.98998 | 4885 ft | 211 kts | 175° |
| 2026-04-18 23:28 | -25.63698 | -52.98710 | 4898 ft | 211 kts | 164° |
| 2026-04-18 23:28 | -25.65104 | -52.98229 | 4901 ft | 212 kts | 162° |
| 2026-04-18 23:28 | -25.66512 | -52.97741 | 4898 ft | 212 kts | 162° |
| 2026-04-18 23:28 | -25.67926 | -52.97271 | 4898 ft | 212 kts | 163° |
| 2026-04-18 23:29 | -25.69342 | -52.96796 | 4900 ft | 213 kts | 162° |
| 2026-04-18 23:29 | -25.70755 | -52.96316 | 4897 ft | 213 kts | 162° |
| 2026-04-18 23:29 | -25.72171 | -52.95844 | 4876 ft | 213 kts | 163° |
| 2026-04-18 23:29 | -25.73590 | -52.95376 | 4865 ft | 213 kts | 162° |
| 2026-04-18 23:30 | -25.75005 | -52.94904 | 4849 ft | 213 kts | 162° |
| 2026-04-18 23:30 | -25.76419 | -52.94431 | 4832 ft | 212 kts | 162° |
| 2026-04-18 23:30 | -25.77835 | -52.93958 | 4825 ft | 212 kts | 162° |
| 2026-04-18 23:30 | -25.79250 | -52.93487 | 4818 ft | 212 kts | 162° |
| 2026-04-18 23:31 | -25.80666 | -52.93013 | 4811 ft | 213 kts | 162° |
| 2026-04-18 23:31 | -25.82081 | -52.92540 | 4811 ft | 213 kts | 162° |
| 2026-04-18 23:31 | -25.83498 | -52.92069 | 4807 ft | 213 kts | 162° |
| 2026-04-18 23:31 | -25.84913 | -52.91595 | 4800 ft | 213 kts | 162° |
| 2026-04-18 23:32 | -25.86330 | -52.91120 | 4803 ft | 212 kts | 162° |
| 2026-04-18 23:32 | -25.87745 | -52.90646 | 4803 ft | 212 kts | 162° |
| 2026-04-18 23:32 | -25.89157 | -52.90174 | 4795 ft | 212 kts | 162° |
| 2026-04-18 23:32 | -25.90571 | -52.89701 | 4788 ft | 212 kts | 162° |
| 2026-04-18 23:33 | -25.91979 | -52.89229 | 4778 ft | 212 kts | 162° |
| 2026-04-18 23:33 | -25.93395 | -52.88754 | 4773 ft | 212 kts | 162° |
| 2026-04-18 23:33 | -25.94808 | -52.88281 | 4752 ft | 213 kts | 162° |
| 2026-04-18 23:33 | -25.96242 | -52.87802 | 4632 ft | 217 kts | 162° |
| 2026-04-18 23:34 | -25.97676 | -52.87323 | 4514 ft | 219 kts | 162° |
| 2026-04-18 23:34 | -25.99154 | -52.86828 | 4389 ft | 219 kts | 162° |
| 2026-04-18 23:34 | -26.00595 | -52.86342 | 4268 ft | 219 kts | 160° |
| 2026-04-18 23:34 | -26.02060 | -52.85803 | 4134 ft | 218 kts | 159° |
| 2026-04-18 23:35 | -26.03504 | -52.85285 | 3996 ft | 218 kts | 163° |
| 2026-04-18 23:35 | -26.04972 | -52.84875 | 3870 ft | 218 kts | 164° |
| 2026-04-18 23:35 | -26.06429 | -52.84414 | 3755 ft | 217 kts | 161° |
| 2026-04-18 23:35 | -26.07857 | -52.83912 | 3724 ft | 213 kts | 161° |
| 2026-04-18 23:36 | -26.09255 | -52.83424 | 3711 ft | 209 kts | 161° |
| 2026-04-18 23:36 | -26.10644 | -52.82963 | 3714 ft | 208 kts | 161° |
| 2026-04-18 23:36 | -26.12027 | -52.82506 | 3707 ft | 206 kts | 161° |
| 2026-04-18 23:36 | -26.13394 | -52.82041 | 3708 ft | 205 kts | 161° |
| 2026-04-18 23:37 | -26.14757 | -52.81585 | 3713 ft | 205 kts | 161° |
| 2026-04-18 23:37 | -26.16126 | -52.81130 | 3714 ft | 205 kts | 161° |
| 2026-04-18 23:37 | -26.17490 | -52.80670 | 3714 ft | 205 kts | 161° |
| 2026-04-18 23:37 | -26.18745 | -52.80273 | 3705 ft | 164 kts | 163° |
| 2026-04-18 23:38 | -26.19721 | -52.79958 | 3704 ft | 133 kts | 160° |
| 2026-04-18 23:38 | -26.20547 | -52.79670 | 3701 ft | 117 kts | 160° |
| 2026-04-18 23:38 | -26.21298 | -52.79407 | 3704 ft | 110 kts | 160° |
| 2026-04-18 23:38 | -26.22015 | -52.79163 | 3716 ft | 109 kts | 160° |
| 2026-04-18 23:39 | -26.22807 | -52.78883 | 3727 ft | 127 kts | 160° |
| 2026-04-18 23:39 | -26.23713 | -52.78591 | 3744 ft | 140 kts | 161° |
| 2026-04-18 23:39 | -26.24666 | -52.78258 | 3746 ft | 146 kts | 153° |
| 2026-04-18 23:39 | -26.25404 | -52.77482 | 3747 ft | 150 kts | 120° |
| 2026-04-18 23:40 | -26.25676 | -52.76369 | 3743 ft | 152 kts | 89° |
| 2026-04-18 23:40 | -26.25365 | -52.75251 | 3741 ft | 152 kts | 56° |
| 2026-04-18 23:40 | -26.24761 | -52.74342 | 3718 ft | 140 kts | 54° |
| 2026-04-18 23:40 | -26.24220 | -52.73494 | 3722 ft | 128 kts | 55° |
| 2026-04-18 23:41 | -26.23766 | -52.72756 | 3705 ft | 106 kts | 56° |
| 2026-04-18 23:41 | -26.23358 | -52.72082 | 3478 ft | 105 kts | 58° |
| 2026-04-18 23:41 | -26.22943 | -52.71403 | 3193 ft | 102 kts | 57° |
| 2026-04-18 23:41 | -26.22562 | -52.70807 | 2921 ft | 88 kts | 55° |
| 2026-04-18 23:42 | -26.22195 | -52.70229 | 2758 ft | 93 kts | 56° |
| 2026-04-18 23:42 | -26.21846 | -52.69666 | 2687 ft | 78 kts | 55° |
| 2026-04-18 23:42 | -26.21622 | -52.69313 | 2689 ft | 28 kts | 54° |
| 2026-04-18 23:42 | -26.21583 | -52.69235 | 2688 ft | 2 kts | 123° |
| 2026-04-18 23:43 | -26.21584 | -52.69234 | 2688 ft | 0 kts | 127° |